createdAt,value
2022-09-25T00:04:00.463Z,10.28
2022-09-25T00:09:00.397Z,10.25
2022-09-25T00:14:00.315Z,10.17
2022-09-25T00:19:00.253Z,10.21
2022-09-25T00:24:00.178Z,10.26
2022-09-25T00:29:00.115Z,10.37
2022-09-25T00:34:00.138Z,10.52
2022-09-25T00:38:59.981Z,10.56
2022-09-25T00:44:00.077Z,10.62
2022-09-25T00:48:59.842Z,10.62
2022-09-25T00:53:59.777Z,10.58
2022-09-25T00:58:59.726Z,10.65
2022-09-25T01:03:59.696Z,10.81
2022-09-25T01:08:59.603Z,10.80
2022-09-25T01:13:59.527Z,10.76
2022-09-25T01:18:59.466Z,10.78
2022-09-25T01:23:59.425Z,10.80
2022-09-25T01:28:59.352Z,10.73
2022-09-25T01:33:59.268Z,10.84
2022-09-25T01:38:59.241Z,10.98
2022-09-25T01:43:59.133Z,11.07
2022-09-25T01:48:59.222Z,11.11
2022-09-25T01:53:58.992Z,11.21
2022-09-25T01:58:58.926Z,11.28
2022-09-25T02:03:58.881Z,11.32
2022-09-25T02:08:58.795Z,11.38
2022-09-25T02:13:58.747Z,11.38
2022-09-25T02:18:58.692Z,11.44
2022-09-25T02:23:58.630Z,11.36
2022-09-25T02:28:58.540Z,11.38
2022-09-25T02:33:58.480Z,11.38
2022-09-25T02:38:58.436Z,11.35
2022-09-25T02:43:58.337Z,11.39
2022-09-25T02:48:58.311Z,11.44
2022-09-25T02:53:58.385Z,11.47
2022-09-25T02:58:58.216Z,11.54
2022-09-25T03:03:58.085Z,11.56
2022-09-25T03:08:58.023Z,11.56
2022-09-25T03:13:57.955Z,11.61
2022-09-25T03:18:57.891Z,11.59
2022-09-25T03:23:57.825Z,11.62
2022-09-25T03:28:57.743Z,11.59
2022-09-25T03:33:57.700Z,11.65
2022-09-25T03:38:57.626Z,11.59
2022-09-25T03:43:57.555Z,11.62
2022-09-25T03:48:57.497Z,11.74
2022-09-25T03:53:57.448Z,11.75
2022-09-25T03:58:57.387Z,11.74
2022-09-25T04:03:57.268Z,11.70
2022-09-25T04:08:57.216Z,11.70
2022-09-25T04:13:57.189Z,11.78
2022-09-25T04:18:57.247Z,11.72
2022-09-25T04:23:57.020Z,11.70
2022-09-25T04:28:56.954Z,11.65
2022-09-25T04:33:56.885Z,11.57
2022-09-25T04:38:56.808Z,11.59
2022-09-25T04:43:56.743Z,11.59
2022-09-25T04:48:56.701Z,11.59
2022-09-25T04:53:56.616Z,11.59
2022-09-25T04:58:56.555Z,11.67
2022-09-25T05:03:56.686Z,11.65
2022-09-25T05:08:56.414Z,11.67
2022-09-25T05:13:56.350Z,11.78
2022-09-25T05:18:56.274Z,11.86
2022-09-25T05:23:56.235Z,11.93
2022-09-25T05:28:56.158Z,11.96
2022-09-25T05:33:56.092Z,11.96
2022-09-25T05:38:56.017Z,12.04
2022-09-25T05:43:55.988Z,11.99
2022-09-25T05:48:55.879Z,12.09
2022-09-25T05:53:55.868Z,12.23
2022-09-25T05:58:55.782Z,12.37
2022-09-25T06:03:55.677Z,12.56
2022-09-25T06:08:55.645Z,12.66
2022-09-25T06:13:55.567Z,12.79
2022-09-25T06:18:55.492Z,12.89
2022-09-25T06:23:55.474Z,13.07
2022-09-25T06:28:58.639Z,13.40
2022-09-25T06:33:56.296Z,13.65
2022-09-25T06:38:55.229Z,13.89
2022-09-25T06:43:55.149Z,13.99
2022-09-25T06:48:55.116Z,14.07
2022-09-25T06:53:55.014Z,14.07
2022-09-25T06:58:54.951Z,13.79
2022-09-25T07:03:54.890Z,13.32
2022-09-25T07:08:54.854Z,13.20
2022-09-25T07:13:55.293Z,13.21
2022-09-25T07:18:54.699Z,13.30
2022-09-25T07:23:54.657Z,13.40
2022-09-25T07:28:55.297Z,13.29
2022-09-25T07:33:54.502Z,13.47
2022-09-25T07:38:54.503Z,13.46
2022-09-25T07:44:06.281Z,13.56
2022-09-25T07:48:55.336Z,13.73
2022-09-25T07:53:54.240Z,14.09
2022-09-25T07:58:55.369Z,14.93
2022-09-25T08:03:54.135Z,16.95
2022-09-25T08:08:54.168Z,17.92
2022-09-25T08:13:54.096Z,18.24
2022-09-25T08:18:54.168Z,17.07
2022-09-25T08:23:53.876Z,17.47
2022-09-25T08:28:54.170Z,18.42
2022-09-25T08:33:53.802Z,18.83
2022-09-25T08:38:53.838Z,18.02
2022-09-25T08:43:53.642Z,18.17
2022-09-25T08:48:53.556Z,18.74
2022-09-25T08:53:53.465Z,19.01
2022-09-25T08:58:53.421Z,18.82
2022-09-25T09:03:53.353Z,18.00
2022-09-25T09:08:53.257Z,17.89
2022-09-25T09:13:53.176Z,18.40
2022-09-25T09:18:53.151Z,18.64
2022-09-25T09:23:53.051Z,17.97
2022-09-25T09:28:53.083Z,17.04
2022-09-25T09:33:53.130Z,18.92
2022-09-25T09:38:52.997Z,19.50
2022-09-25T09:43:57.328Z,19.86
2022-09-25T09:48:53.896Z,19.90
2022-09-25T09:53:52.962Z,20.05
2022-09-25T09:58:52.643Z,19.91
2022-09-25T10:03:52.674Z,20.18
2022-09-25T10:08:52.543Z,20.66
2022-09-25T10:13:52.944Z,20.56
2022-09-25T10:18:52.393Z,20.77
2022-09-25T10:23:52.312Z,21.08
2022-09-25T10:28:52.190Z,21.29
2022-09-25T10:33:53.365Z,20.68
2022-09-25T10:38:59.616Z,21.13
2022-09-25T10:43:53.087Z,21.21
2022-09-25T10:48:52.048Z,21.57
2022-09-25T10:53:51.874Z,21.74
2022-09-25T10:58:51.809Z,20.39
2022-09-25T11:03:51.800Z,20.74
2022-09-25T11:08:52.134Z,21.59
2022-09-25T11:13:51.623Z,22.02
2022-09-25T11:18:51.710Z,22.23
2022-09-25T11:23:51.614Z,22.46
2022-09-25T11:28:51.453Z,22.10
2022-09-25T11:33:51.466Z,22.43
2022-09-25T11:38:51.525Z,22.82
2022-09-25T11:43:55.609Z,22.97
2022-09-25T11:48:52.203Z,22.39
2022-09-25T11:53:53.174Z,20.91
2022-09-25T11:58:51.240Z,22.39
2022-09-25T12:03:51.267Z,23.19
2022-09-25T12:08:51.445Z,23.34
2022-09-25T12:13:50.829Z,23.52
2022-09-25T12:18:50.933Z,22.97
2022-09-25T12:23:50.767Z,22.75
2022-09-25T12:28:50.651Z,22.82
2022-09-25T12:33:52.345Z,22.71
2022-09-25T12:38:50.563Z,22.47
2022-09-25T12:43:50.519Z,22.53
2022-09-25T12:48:50.409Z,22.71
2022-09-25T12:53:50.441Z,22.68
2022-09-25T12:58:50.341Z,22.44
2022-09-25T13:03:50.163Z,22.74
2022-09-25T13:08:50.167Z,22.01
2022-09-25T13:13:50.052Z,22.06
2022-09-25T13:18:50.034Z,22.57
2022-09-25T13:23:50.075Z,22.93
2022-09-25T13:28:50.117Z,23.29
2022-09-25T13:33:50.311Z,23.60
2022-09-25T13:38:49.746Z,22.60
2022-09-25T13:43:49.853Z,21.57
2022-09-25T13:48:56.101Z,21.50
2022-09-25T13:54:02.650Z,21.24
2022-09-25T13:58:49.722Z,21.92
2022-09-25T14:03:50.492Z,21.38
2022-09-25T14:08:49.521Z,20.99
2022-09-25T14:13:49.368Z,20.24
2022-09-25T14:18:52.756Z,20.34
2022-09-25T14:23:50.160Z,20.28
2022-09-25T14:28:49.042Z,20.53
2022-09-25T14:33:49.023Z,20.09
2022-09-25T14:38:48.940Z,19.90
2022-09-25T14:43:48.871Z,19.75
2022-09-25T14:48:48.841Z,19.86
2022-09-25T14:53:48.755Z,19.73
2022-09-25T14:58:48.867Z,19.87
2022-09-25T15:03:48.581Z,20.49
2022-09-25T15:08:48.888Z,20.90
2022-09-25T15:13:48.458Z,20.50
2022-09-25T15:18:48.377Z,20.49
2022-09-25T15:23:48.319Z,19.97
2022-09-25T15:28:48.669Z,19.65
2022-09-25T15:33:48.187Z,19.88
2022-09-25T15:38:48.162Z,19.72
2022-09-25T15:43:48.149Z,19.53
2022-09-25T15:48:48.051Z,19.18
2022-09-25T15:53:47.981Z,18.94
2022-09-25T15:58:47.939Z,19.33
2022-09-25T16:03:48.073Z,18.90
2022-09-25T16:08:47.811Z,18.87
2022-09-25T16:13:47.681Z,18.91
2022-09-25T16:18:47.607Z,18.57
2022-09-25T16:23:50.857Z,18.18
2022-09-25T16:28:48.497Z,17.79
2022-09-25T16:33:47.444Z,17.36
2022-09-25T16:38:47.316Z,17.64
2022-09-25T16:43:47.353Z,18.34
2022-09-25T16:48:47.221Z,18.64
2022-09-25T16:53:47.266Z,17.81
2022-09-25T16:58:47.137Z,17.47
2022-09-25T17:03:46.988Z,17.32
2022-09-25T17:08:47.205Z,17.51
2022-09-25T17:13:47.059Z,17.26
2022-09-25T17:18:46.892Z,17.44
2022-09-25T17:23:46.766Z,16.60
2022-09-25T17:28:46.659Z,16.67
2022-09-25T17:33:46.643Z,16.44
2022-09-25T17:38:46.559Z,16.63
2022-09-25T17:43:46.450Z,17.13
2022-09-25T17:48:51.574Z,15.97
2022-09-25T17:53:47.441Z,15.46
2022-09-25T17:58:46.436Z,15.38
2022-09-25T18:03:46.232Z,15.12
2022-09-25T18:08:46.133Z,15.27
2022-09-25T18:13:46.528Z,15.12
2022-09-25T18:18:46.024Z,15.01
2022-09-25T18:23:45.986Z,14.99
2022-09-25T18:28:45.877Z,14.87
2022-09-25T18:33:47.523Z,14.81
2022-09-25T18:38:45.801Z,15.30
2022-09-25T18:43:45.686Z,14.91
2022-09-25T18:48:45.668Z,14.52
2022-09-25T18:53:45.543Z,14.37
2022-09-25T18:58:45.497Z,14.83
2022-09-25T19:03:45.422Z,14.34
2022-09-25T19:08:45.441Z,14.02
2022-09-25T19:13:45.400Z,14.35
2022-09-25T19:18:45.570Z,13.94
2022-09-25T19:23:45.480Z,14.32
2022-09-25T19:28:45.077Z,14.39
2022-09-25T19:33:45.112Z,13.77
2022-09-25T19:38:45.472Z,13.40
2022-09-25T19:43:45.243Z,13.59
2022-09-25T19:48:46.042Z,14.72
2022-09-25T19:53:44.821Z,14.02
2022-09-25T19:58:44.796Z,13.27
2022-09-25T20:03:44.626Z,12.93
2022-09-25T20:08:44.581Z,13.30
2022-09-25T20:13:44.523Z,13.46
2022-09-25T20:18:44.616Z,13.30
2022-09-25T20:23:44.774Z,13.33
2022-09-25T20:28:44.475Z,13.74
2022-09-25T20:33:44.293Z,13.56
2022-09-25T20:38:44.181Z,13.27
2022-09-25T20:43:44.170Z,13.15
2022-09-25T20:48:44.192Z,12.78
2022-09-25T20:53:44.103Z,12.84
2022-09-25T20:58:43.964Z,13.03
2022-09-25T21:03:43.986Z,13.07
2022-09-25T21:08:44.360Z,13.76
2022-09-25T21:13:43.955Z,13.27
2022-09-25T21:18:43.662Z,12.92
2022-09-25T21:23:43.574Z,13.33
2022-09-25T21:28:43.704Z,13.96
2022-09-25T21:33:43.467Z,13.83
2022-09-25T21:38:43.640Z,13.80
2022-09-25T21:43:43.444Z,13.88
2022-09-25T21:48:43.241Z,13.46
2022-09-25T21:53:43.283Z,14.31
2022-09-25T21:58:43.222Z,13.76
2022-09-25T22:03:43.144Z,13.52
2022-09-25T22:08:43.099Z,13.37
2022-09-25T22:13:43.023Z,13.37
2022-09-25T22:18:42.844Z,13.47
2022-09-25T22:23:42.764Z,13.70
2022-09-25T22:28:42.721Z,14.31
2022-09-25T22:33:42.902Z,13.94
2022-09-25T22:38:42.561Z,13.29
2022-09-25T22:43:42.484Z,13.18
2022-09-25T22:48:42.443Z,13.92
2022-09-25T22:53:42.439Z,14.42
2022-09-25T22:58:42.315Z,14.27
2022-09-25T23:03:42.338Z,14.09
2022-09-25T23:08:42.362Z,13.76
2022-09-25T23:13:42.313Z,14.09
2022-09-25T23:18:42.064Z,14.94
2022-09-25T23:23:42.080Z,15.17
2022-09-25T23:28:41.942Z,14.29
2022-09-25T23:33:41.892Z,14.50
2022-09-25T23:38:41.934Z,15.11
2022-09-25T23:43:41.696Z,15.28
2022-09-25T23:48:41.636Z,14.86
2022-09-25T23:53:41.568Z,14.88
2022-09-25T23:58:41.499Z,15.06
